sensor_id;sensor_type;location;lat;lon;timestamp;pressure;altitude;pressure_sealevel;temperature;humidity
26657;BME280;14279;50.010;8.260;2023-09-08T00:01:32;100621.06;;;21.70;66.52
26657;BME280;14279;50.010;8.260;2023-09-08T00:03:57;100621.22;;;21.69;66.44
26657;BME280;14279;50.010;8.260;2023-09-08T00:06:22;100624.13;;;21.66;67.01
26657;BME280;14279;50.010;8.260;2023-09-08T00:08:47;100615.06;;;21.68;66.36
26657;BME280;14279;50.010;8.260;2023-09-08T00:11:12;100613.22;;;21.59;66.75
26657;BME280;14279;50.010;8.260;2023-09-08T00:13:38;100614.03;;;21.59;67.73
26657;BME280;14279;50.010;8.260;2023-09-08T00:16:05;100612.22;;;21.50;67.74
26657;BME280;14279;50.010;8.260;2023-09-08T00:18:30;100619.03;;;21.43;67.15
26657;BME280;14279;50.010;8.260;2023-09-08T00:20:55;100618.47;;;21.39;68.15
26657;BME280;14279;50.010;8.260;2023-09-08T00:23:20;100615.50;;;21.32;67.99
26657;BME280;14279;50.010;8.260;2023-09-08T00:25:46;100610.91;;;21.35;67.84
26657;BME280;14279;50.010;8.260;2023-09-08T00:28:11;100618.03;;;21.34;68.03
26657;BME280;14279;50.010;8.260;2023-09-08T00:30:36;100614.53;;;21.33;68.28
26657;BME280;14279;50.010;8.260;2023-09-08T00:33:01;100612.13;;;21.21;68.73
26657;BME280;14279;50.010;8.260;2023-09-08T00:35:27;100615.38;;;21.24;68.72
26657;BME280;14279;50.010;8.260;2023-09-08T00:37:52;100613.97;;;21.20;68.61
26657;BME280;14279;50.010;8.260;2023-09-08T00:40:17;100605.56;;;21.15;68.62
26657;BME280;14279;50.010;8.260;2023-09-08T00:42:42;100607.69;;;21.21;68.53
26657;BME280;14279;50.010;8.260;2023-09-08T00:45:08;100608.63;;;21.10;69.57
26657;BME280;14279;50.010;8.260;2023-09-08T00:47:34;100614.47;;;21.14;68.00
26657;BME280;14279;50.010;8.260;2023-09-08T00:50:01;100607.41;;;21.14;67.90
26657;BME280;14279;50.010;8.260;2023-09-08T00:52:27;100611.53;;;21.07;69.23
26657;BME280;14279;50.010;8.260;2023-09-08T00:54:57;100605.97;;;21.10;67.86
26657;BME280;14279;50.010;8.260;2023-09-08T00:57:23;100604.16;;;21.11;68.15
26657;BME280;14279;50.010;8.260;2023-09-08T00:59:49;100609.34;;;21.12;67.69
26657;BME280;14279;50.010;8.260;2023-09-08T01:02:14;100614.59;;;21.02;67.33
26657;BME280;14279;50.010;8.260;2023-09-08T01:04:40;100622.91;;;20.98;67.55
26657;BME280;14279;50.010;8.260;2023-09-08T01:07:07;100624.03;;;20.95;67.60
26657;BME280;14279;50.010;8.260;2023-09-08T01:09:34;100617.25;;;21.02;67.29
26657;BME280;14279;50.010;8.260;2023-09-08T01:11:59;100618.78;;;21.05;66.36
26657;BME280;14279;50.010;8.260;2023-09-08T01:14:27;100620.59;;;21.05;67.32
26657;BME280;14279;50.010;8.260;2023-09-08T01:16:52;100621.41;;;21.05;66.14
26657;BME280;14279;50.010;8.260;2023-09-08T01:19:19;100620.97;;;21.00;65.57
26657;BME280;14279;50.010;8.260;2023-09-08T01:26:56;100622.00;;;20.78;67.78
26657;BME280;14279;50.010;8.260;2023-09-08T01:29:22;100631.63;;;20.67;67.55
26657;BME280;14279;50.010;8.260;2023-09-08T01:31:50;100627.66;;;20.52;67.90
26657;BME280;14279;50.010;8.260;2023-09-08T01:34:16;100625.28;;;20.49;68.06
26657;BME280;14279;50.010;8.260;2023-09-08T01:36:42;100630.00;;;20.45;67.59
26657;BME280;14279;50.010;8.260;2023-09-08T01:39:07;100633.13;;;20.39;68.37
26657;BME280;14279;50.010;8.260;2023-09-08T01:41:32;100626.41;;;20.35;68.90
26657;BME280;14279;50.010;8.260;2023-09-08T01:43:58;100623.38;;;20.39;69.05
26657;BME280;14279;50.010;8.260;2023-09-08T01:46:24;100624.94;;;20.42;69.86
26657;BME280;14279;50.010;8.260;2023-09-08T01:48:49;100625.72;;;20.54;69.19
26657;BME280;14279;50.010;8.260;2023-09-08T01:51:14;100620.47;;;20.42;69.64
26657;BME280;14279;50.010;8.260;2023-09-08T01:53:39;100623.03;;;20.44;69.43
26657;BME280;14279;50.010;8.260;2023-09-08T01:56:07;100619.31;;;20.35;70.37
26657;BME280;14279;50.010;8.260;2023-09-08T01:58:33;100625.25;;;20.27;70.98
26657;BME280;14279;50.010;8.260;2023-09-08T02:00:59;100618.53;;;20.23;71.29
26657;BME280;14279;50.010;8.260;2023-09-08T02:03:30;100620.94;;;20.26;71.82
26657;BME280;14279;50.010;8.260;2023-09-08T02:05:55;100620.31;;;20.34;71.36
26657;BME280;14279;50.010;8.260;2023-09-08T02:08:21;100623.13;;;20.42;71.43
26657;BME280;14279;50.010;8.260;2023-09-08T02:10:46;100618.00;;;20.41;71.36
26657;BME280;14279;50.010;8.260;2023-09-08T02:13:11;100618.88;;;20.30;71.25
26657;BME280;14279;50.010;8.260;2023-09-08T02:15:36;100622.25;;;20.00;72.60
26657;BME280;14279;50.010;8.260;2023-09-08T02:18:02;100616.16;;;19.88;73.00
26657;BME280;14279;50.010;8.260;2023-09-08T02:20:27;100620.75;;;19.74;73.35
26657;BME280;14279;50.010;8.260;2023-09-08T02:22:54;100620.50;;;19.77;73.22
26657;BME280;14279;50.010;8.260;2023-09-08T02:25:19;100620.59;;;19.87;73.04
26657;BME280;14279;50.010;8.260;2023-09-08T02:27:45;100621.47;;;19.76;73.42
26657;BME280;14279;50.010;8.260;2023-09-08T02:30:10;100621.22;;;19.68;73.78
26657;BME280;14279;50.010;8.260;2023-09-08T02:32:35;100617.84;;;19.77;73.65
26657;BME280;14279;50.010;8.260;2023-09-08T02:35:01;100618.31;;;19.82;73.14
26657;BME280;14279;50.010;8.260;2023-09-08T02:37:26;100622.28;;;19.77;73.11
26657;BME280;14279;50.010;8.260;2023-09-08T02:39:51;100621.13;;;19.58;74.30
26657;BME280;14279;50.010;8.260;2023-09-08T02:42:16;100617.81;;;19.45;75.09
26657;BME280;14279;50.010;8.260;2023-09-08T02:44:41;100619.50;;;19.46;75.20
26657;BME280;14279;50.010;8.260;2023-09-08T02:47:08;100621.28;;;19.57;75.22
26657;BME280;14279;50.010;8.260;2023-09-08T02:49:33;100622.56;;;19.51;75.44
26657;BME280;14279;50.010;8.260;2023-09-08T02:51:58;100622.84;;;19.48;75.64
26657;BME280;14279;50.010;8.260;2023-09-08T02:54:23;100623.91;;;19.45;76.22
26657;BME280;14279;50.010;8.260;2023-09-08T02:56:49;100615.50;;;19.40;76.39
26657;BME280;14279;50.010;8.260;2023-09-08T02:59:14;100628.84;;;19.38;76.75
26657;BME280;14279;50.010;8.260;2023-09-08T03:01:39;100623.31;;;19.30;76.92
26657;BME280;14279;50.010;8.260;2023-09-08T03:04:05;100625.88;;;19.32;76.81
26657;BME280;14279;50.010;8.260;2023-09-08T03:06:30;100619.38;;;19.25;76.95
26657;BME280;14279;50.010;8.260;2023-09-08T03:08:55;100620.34;;;19.23;77.03
26657;BME280;14279;50.010;8.260;2023-09-08T03:11:21;100623.00;;;19.12;77.57
26657;BME280;14279;50.010;8.260;2023-09-08T03:13:46;100622.72;;;19.15;77.42
26657;BME280;14279;50.010;8.260;2023-09-08T03:16:11;100626.59;;;19.11;77.65
26657;BME280;14279;50.010;8.260;2023-09-08T03:18:36;100624.44;;;19.05;77.90
26657;BME280;14279;50.010;8.260;2023-09-08T03:21:06;100624.66;;;19.02;78.72
26657;BME280;14279;50.010;8.260;2023-09-08T03:23:38;100619.38;;;19.02;77.97
26657;BME280;14279;50.010;8.260;2023-09-08T03:26:04;100628.97;;;19.03;78.15
26657;BME280;14279;50.010;8.260;2023-09-08T03:28:30;100627.78;;;18.96;78.66
26657;BME280;14279;50.010;8.260;2023-09-08T03:30:55;100620.47;;;18.99;78.44
26657;BME280;14279;50.010;8.260;2023-09-08T03:33:20;100624.97;;;18.86;78.71
26657;BME280;14279;50.010;8.260;2023-09-08T03:35:45;100629.28;;;18.87;79.04
26657;BME280;14279;50.010;8.260;2023-09-08T03:38:11;100626.28;;;18.91;78.97
26657;BME280;14279;50.010;8.260;2023-09-08T03:40:36;100622.34;;;18.86;79.27
26657;BME280;14279;50.010;8.260;2023-09-08T03:43:03;100617.22;;;18.96;79.19
26657;BME280;14279;50.010;8.260;2023-09-08T03:45:28;100620.59;;;18.98;79.49
26657;BME280;14279;50.010;8.260;2023-09-08T03:47:53;100618.16;;;18.83;79.85
26657;BME280;14279;50.010;8.260;2023-09-08T03:50:18;100625.34;;;18.81;79.96
26657;BME280;14279;50.010;8.260;2023-09-08T03:52:44;100616.84;;;18.77;80.17
26657;BME280;14279;50.010;8.260;2023-09-08T03:55:09;100614.44;;;18.74;80.21
26657;BME280;14279;50.010;8.260;2023-09-08T03:57:34;100615.50;;;18.72;80.38
26657;BME280;14279;50.010;8.260;2023-09-08T03:59:59;100622.69;;;18.81;80.02
26657;BME280;14279;50.010;8.260;2023-09-08T04:02:24;100627.25;;;18.79;79.91
26657;BME280;14279;50.010;8.260;2023-09-08T04:04:50;100623.66;;;18.80;79.72
26657;BME280;14279;50.010;8.260;2023-09-08T04:07:15;100635.13;;;18.68;79.60
26657;BME280;14279;50.010;8.260;2023-09-08T04:09:40;100636.44;;;18.62;80.08
26657;BME280;14279;50.010;8.260;2023-09-08T04:12:06;100634.63;;;18.51;80.34
26657;BME280;14279;50.010;8.260;2023-09-08T04:14:43;100635.47;;;18.52;80.43
26657;BME280;14279;50.010;8.260;2023-09-08T04:17:08;100640.13;;;18.48;80.65
26657;BME280;14279;50.010;8.260;2023-09-08T04:19:33;100634.59;;;18.40;81.32
26657;BME280;14279;50.010;8.260;2023-09-08T04:21:59;100635.88;;;18.34;81.52
26657;BME280;14279;50.010;8.260;2023-09-08T04:24:24;100637.16;;;18.53;80.85
26657;BME280;14279;50.010;8.260;2023-09-08T04:26:49;100637.13;;;18.41;81.04
26657;BME280;14279;50.010;8.260;2023-09-08T04:29:14;100633.03;;;18.37;81.41
26657;BME280;14279;50.010;8.260;2023-09-08T04:31:47;100641.56;;;18.41;81.20
26657;BME280;14279;50.010;8.260;2023-09-08T04:34:12;100645.03;;;18.41;81.24
26657;BME280;14279;50.010;8.260;2023-09-08T04:36:38;100646.97;;;18.51;81.07
26657;BME280;14279;50.010;8.260;2023-09-08T04:39:03;100643.72;;;18.47;80.55
26657;BME280;14279;50.010;8.260;2023-09-08T04:41:28;100641.94;;;18.47;80.76
26657;BME280;14279;50.010;8.260;2023-09-08T04:43:54;100641.81;;;18.49;80.65
26657;BME280;14279;50.010;8.260;2023-09-08T04:46:20;100640.25;;;18.58;80.36
26657;BME280;14279;50.010;8.260;2023-09-08T04:48:45;100646.34;;;18.47;80.66
26657;BME280;14279;50.010;8.260;2023-09-08T04:51:10;100646.34;;;18.47;80.74
26657;BME280;14279;50.010;8.260;2023-09-08T04:53:36;100646.56;;;18.32;81.64
26657;BME280;14279;50.010;8.260;2023-09-08T04:56:01;100649.22;;;18.44;81.08
26657;BME280;14279;50.010;8.260;2023-09-08T04:58:26;100660.72;;;18.43;81.08
26657;BME280;14279;50.010;8.260;2023-09-08T05:00:52;100655.44;;;18.43;81.33
26657;BME280;14279;50.010;8.260;2023-09-08T05:03:17;100659.66;;;18.57;80.54
26657;BME280;14279;50.010;8.260;2023-09-08T05:05:42;100658.56;;;18.37;81.25
26657;BME280;14279;50.010;8.260;2023-09-08T05:08:08;100658.31;;;18.40;81.12
26657;BME280;14279;50.010;8.260;2023-09-08T05:10:33;100659.19;;;18.52;80.53
26657;BME280;14279;50.010;8.260;2023-09-08T05:12:58;100657.09;;;18.32;81.25
26657;BME280;14279;50.010;8.260;2023-09-08T05:15:23;100661.69;;;18.17;81.94
26657;BME280;14279;50.010;8.260;2023-09-08T05:17:50;100658.00;;;18.20;82.05
26657;BME280;14279;50.010;8.260;2023-09-08T05:20:15;100660.41;;;18.23;81.82
26657;BME280;14279;50.010;8.260;2023-09-08T05:22:41;100666.63;;;18.22;81.81
26657;BME280;14279;50.010;8.260;2023-09-08T05:25:06;100668.59;;;18.31;81.67
26657;BME280;14279;50.010;8.260;2023-09-08T05:27:32;100660.03;;;18.52;80.58
26657;BME280;14279;50.010;8.260;2023-09-08T05:29:57;100664.25;;;18.66;80.04
26657;BME280;14279;50.010;8.260;2023-09-08T05:32:22;100667.44;;;18.47;80.55
26657;BME280;14279;50.010;8.260;2023-09-08T05:34:48;100675.53;;;18.32;81.22
26657;BME280;14279;50.010;8.260;2023-09-08T05:37:13;100673.88;;;18.43;80.77
26657;BME280;14279;50.010;8.260;2023-09-08T05:39:38;100664.44;;;18.40;80.85
26657;BME280;14279;50.010;8.260;2023-09-08T05:42:04;100677.72;;;18.39;81.14
26657;BME280;14279;50.010;8.260;2023-09-08T05:44:29;100671.59;;;18.38;80.76
26657;BME280;14279;50.010;8.260;2023-09-08T05:46:54;100676.00;;;18.62;80.22
26657;BME280;14279;50.010;8.260;2023-09-08T05:49:20;100680.44;;;18.61;79.78
26657;BME280;14279;50.010;8.260;2023-09-08T05:51:46;100678.03;;;18.70;79.56
26657;BME280;14279;50.010;8.260;2023-09-08T05:54:11;100678.63;;;18.62;79.89
26657;BME280;14279;50.010;8.260;2023-09-08T05:56:37;100685.00;;;18.71;79.48
26657;BME280;14279;50.010;8.260;2023-09-08T05:59:05;100681.22;;;18.86;78.98
26657;BME280;14279;50.010;8.260;2023-09-08T06:01:31;100686.53;;;18.98;78.61
26657;BME280;14279;50.010;8.260;2023-09-08T06:03:59;100687.16;;;19.13;78.05
26657;BME280;14279;50.010;8.260;2023-09-08T06:06:44;100692.28;;;19.14;78.49
26657;BME280;14279;50.010;8.260;2023-09-08T06:09:12;100684.88;;;19.19;77.87
26657;BME280;14279;50.010;8.260;2023-09-08T06:11:39;100683.94;;;19.32;77.46
26657;BME280;14279;50.010;8.260;2023-09-08T06:14:05;100681.03;;;19.46;76.50
26657;BME280;14279;50.010;8.260;2023-09-08T06:16:30;100682.25;;;19.53;76.09
26657;BME280;14279;50.010;8.260;2023-09-08T06:18:55;100681.88;;;19.58;75.78
26657;BME280;14279;50.010;8.260;2023-09-08T06:21:21;100681.97;;;19.68;75.55
26657;BME280;14279;50.010;8.260;2023-09-08T06:23:46;100681.00;;;19.69;75.14
26657;BME280;14279;50.010;8.260;2023-09-08T06:26:12;100684.25;;;19.73;75.00
26657;BME280;14279;50.010;8.260;2023-09-08T06:28:37;100684.59;;;19.79;74.98
26657;BME280;14279;50.010;8.260;2023-09-08T06:31:04;100686.06;;;19.72;75.06
26657;BME280;14279;50.010;8.260;2023-09-08T06:33:29;100687.00;;;19.82;74.89
26657;BME280;14279;50.010;8.260;2023-09-08T06:35:54;100694.44;;;19.89;74.64
26657;BME280;14279;50.010;8.260;2023-09-08T06:38:20;100684.28;;;20.17;73.47
26657;BME280;14279;50.010;8.260;2023-09-08T06:40:45;100684.13;;;20.30;73.04
26657;BME280;14279;50.010;8.260;2023-09-08T06:43:10;100691.06;;;20.42;71.89
26657;BME280;14279;50.010;8.260;2023-09-08T06:45:38;100695.38;;;20.43;71.82
26657;BME280;14279;50.010;8.260;2023-09-08T06:48:05;100693.81;;;20.40;71.77
26657;BME280;14279;50.010;8.260;2023-09-08T06:50:30;100695.94;;;20.47;71.18
26657;BME280;14279;50.010;8.260;2023-09-08T06:52:56;100696.16;;;20.55;70.55
26657;BME280;14279;50.010;8.260;2023-09-08T06:55:21;100688.03;;;20.68;70.15
26657;BME280;14279;50.010;8.260;2023-09-08T06:57:46;100686.69;;;20.73;70.12
26657;BME280;14279;50.010;8.260;2023-09-08T07:00:12;100690.78;;;20.78;69.02
26657;BME280;14279;50.010;8.260;2023-09-08T07:02:39;100681.66;;;20.92;68.74
26657;BME280;14279;50.010;8.260;2023-09-08T07:05:04;100684.69;;;20.87;68.87
26657;BME280;14279;50.010;8.260;2023-09-08T07:07:34;100677.09;;;20.94;68.79
26657;BME280;14279;50.010;8.260;2023-09-08T07:09:59;100683.91;;;20.96;69.04
26657;BME280;14279;50.010;8.260;2023-09-08T07:12:24;100686.91;;;21.13;68.81
26657;BME280;14279;50.010;8.260;2023-09-08T07:14:50;100677.34;;;21.22;67.70
26657;BME280;14279;50.010;8.260;2023-09-08T07:17:15;100682.53;;;21.02;65.38
26657;BME280;14279;50.010;8.260;2023-09-08T07:19:41;100680.97;;;21.21;64.14
26657;BME280;14279;50.010;8.260;2023-09-08T07:22:06;100679.97;;;21.53;63.29
26657;BME280;14279;50.010;8.260;2023-09-08T07:24:31;100679.34;;;21.70;62.33
26657;BME280;14279;50.010;8.260;2023-09-08T07:26:56;100681.03;;;21.81;62.36
26657;BME280;14279;50.010;8.260;2023-09-08T07:29:22;100677.75;;;21.99;61.32
26657;BME280;14279;50.010;8.260;2023-09-08T07:31:47;100687.91;;;21.84;62.23
26657;BME280;14279;50.010;8.260;2023-09-08T07:34:12;100686.25;;;21.92;61.80
26657;BME280;14279;50.010;8.260;2023-09-08T07:36:37;100688.41;;;21.68;62.29
26657;BME280;14279;50.010;8.260;2023-09-08T07:39:03;100694.41;;;21.70;61.76
26657;BME280;14279;50.010;8.260;2023-09-08T07:41:28;100695.66;;;21.66;62.02
26657;BME280;14279;50.010;8.260;2023-09-08T07:43:53;100693.88;;;21.76;61.56
26657;BME280;14279;50.010;8.260;2023-09-08T07:46:19;100692.81;;;22.08;60.99
26657;BME280;14279;50.010;8.260;2023-09-08T07:48:44;100694.75;;;22.06;61.25
26657;BME280;14279;50.010;8.260;2023-09-08T07:51:09;100691.56;;;22.32;60.57
26657;BME280;14279;50.010;8.260;2023-09-08T07:53:34;100693.13;;;22.44;60.09
26657;BME280;14279;50.010;8.260;2023-09-08T07:56:00;100695.75;;;22.25;60.48
26657;BME280;14279;50.010;8.260;2023-09-08T07:58:26;100696.44;;;22.17;60.83
26657;BME280;14279;50.010;8.260;2023-09-08T08:00:51;100694.75;;;22.16;60.54
26657;BME280;14279;50.010;8.260;2023-09-08T08:03:16;100697.28;;;22.27;60.34
26657;BME280;14279;50.010;8.260;2023-09-08T08:05:42;100699.53;;;22.51;59.35
26657;BME280;14279;50.010;8.260;2023-09-08T08:08:07;100698.25;;;22.26;59.94
26657;BME280;14279;50.010;8.260;2023-09-08T08:10:34;100707.63;;;22.30;60.09
26657;BME280;14279;50.010;8.260;2023-09-08T08:13:00;100703.56;;;22.26;60.07
26657;BME280;14279;50.010;8.260;2023-09-08T08:15:35;100705.13;;;22.39;59.90
26657;BME280;14279;50.010;8.260;2023-09-08T08:18:00;100701.78;;;22.27;60.03
26657;BME280;14279;50.010;8.260;2023-09-08T08:20:26;100698.25;;;22.36;59.76
26657;BME280;14279;50.010;8.260;2023-09-08T08:22:51;100699.00;;;22.48;59.36
26657;BME280;14279;50.010;8.260;2023-09-08T08:25:16;100697.72;;;22.52;59.49
26657;BME280;14279;50.010;8.260;2023-09-08T08:27:42;100692.81;;;22.77;58.66
26657;BME280;14279;50.010;8.260;2023-09-08T08:30:07;100689.44;;;22.85;58.51
26657;BME280;14279;50.010;8.260;2023-09-08T08:32:33;100691.91;;;23.06;57.86
26657;BME280;14279;50.010;8.260;2023-09-08T08:34:58;100699.03;;;23.05;58.26
26657;BME280;14279;50.010;8.260;2023-09-08T08:37:24;100689.78;;;23.09;58.20
26657;BME280;14279;50.010;8.260;2023-09-08T08:39:49;100694.94;;;23.21;57.82
26657;BME280;14279;50.010;8.260;2023-09-08T08:42:14;100693.44;;;23.08;58.01
26657;BME280;14279;50.010;8.260;2023-09-08T08:44:40;100691.38;;;23.40;57.33
26657;BME280;14279;50.010;8.260;2023-09-08T08:47:07;100689.78;;;23.09;57.98
26657;BME280;14279;50.010;8.260;2023-09-08T08:49:33;100688.56;;;23.04;58.41
26657;BME280;14279;50.010;8.260;2023-09-08T08:51:59;100686.03;;;23.22;58.09
26657;BME280;14279;50.010;8.260;2023-09-08T08:54:25;100687.16;;;23.00;58.66
26657;BME280;14279;50.010;8.260;2023-09-08T08:56:51;100686.03;;;23.02;58.84
26657;BME280;14279;50.010;8.260;2023-09-08T08:59:16;100684.31;;;23.21;58.36
26657;BME280;14279;50.010;8.260;2023-09-08T09:01:42;100680.50;;;23.33;57.91
26657;BME280;14279;50.010;8.260;2023-09-08T09:04:08;100673.19;;;23.45;57.46
26657;BME280;14279;50.010;8.260;2023-09-08T09:06:35;100679.81;;;23.59;57.04
26657;BME280;14279;50.010;8.260;2023-09-08T09:09:00;100681.88;;;23.65;56.52
26657;BME280;14279;50.010;8.260;2023-09-08T09:11:26;100684.03;;;23.80;56.66
26657;BME280;14279;50.010;8.260;2023-09-08T09:13:52;100679.28;;;23.83;56.35
26657;BME280;14279;50.010;8.260;2023-09-08T09:16:17;100678.59;;;23.99;55.94
26657;BME280;14279;50.010;8.260;2023-09-08T09:19:01;100682.00;;;23.92;56.24
26657;BME280;14279;50.010;8.260;2023-09-08T09:21:43;100684.41;;;23.85;56.11
26657;BME280;14279;50.010;8.260;2023-09-08T09:24:28;100687.06;;;24.13;55.63
26657;BME280;14279;50.010;8.260;2023-09-08T09:26:55;100690.16;;;24.44;54.99
26657;BME280;14279;50.010;8.260;2023-09-08T09:29:20;100678.81;;;24.42;54.46
26657;BME280;14279;50.010;8.260;2023-09-08T09:32:03;100682.78;;;24.38;54.79
26657;BME280;14279;50.010;8.260;2023-09-08T09:34:29;100686.59;;;24.36;55.01
26657;BME280;14279;50.010;8.260;2023-09-08T09:36:55;100678.00;;;24.42;54.42
26657;BME280;14279;50.010;8.260;2023-09-08T09:39:22;100686.06;;;24.14;55.63
26657;BME280;14279;50.010;8.260;2023-09-08T09:41:48;100671.34;;;24.46;54.46
26657;BME280;14279;50.010;8.260;2023-09-08T09:44:15;100669.66;;;24.63;53.87
26657;BME280;14279;50.010;8.260;2023-09-08T09:46:47;100675.28;;;24.78;53.28
26657;BME280;14279;50.010;8.260;2023-09-08T09:49:14;100678.00;;;24.86;54.08
26657;BME280;14279;50.010;8.260;2023-09-08T09:51:44;100670.31;;;25.10;53.15
26657;BME280;14279;50.010;8.260;2023-09-08T09:54:11;100670.59;;;24.98;52.95
26657;BME280;14279;50.010;8.260;2023-09-08T09:56:40;100674.19;;;25.24;52.54
26657;BME280;14279;50.010;8.260;2023-09-08T09:59:10;100673.06;;;24.91;52.83
26657;BME280;14279;50.010;8.260;2023-09-08T10:01:38;100666.19;;;24.89;53.23
26657;BME280;14279;50.010;8.260;2023-09-08T10:04:04;100663.72;;;25.22;52.54
26657;BME280;14279;50.010;8.260;2023-09-08T10:06:35;100656.78;;;25.38;52.13
26657;BME280;14279;50.010;8.260;2023-09-08T10:09:02;100656.09;;;25.27;51.91
26657;BME280;14279;50.010;8.260;2023-09-08T10:11:49;100651.69;;;25.53;51.47
26657;BME280;14279;50.010;8.260;2023-09-08T10:14:18;100653.03;;;25.65;51.11
26657;BME280;14279;50.010;8.260;2023-09-08T10:16:49;100650.91;;;25.69;50.99
26657;BME280;14279;50.010;8.260;2023-09-08T10:19:17;100645.38;;;25.54;51.77
26657;BME280;14279;50.010;8.260;2023-09-08T10:21:45;100646.19;;;25.54;51.23
26657;BME280;14279;50.010;8.260;2023-09-08T10:24:18;100643.91;;;25.68;50.21
26657;BME280;14279;50.010;8.260;2023-09-08T10:26:54;100646.09;;;25.80;50.39
26657;BME280;14279;50.010;8.260;2023-09-08T10:29:22;100640.78;;;26.05;49.73
26657;BME280;14279;50.010;8.260;2023-09-08T10:31:48;100639.00;;;26.22;49.47
26657;BME280;14279;50.010;8.260;2023-09-08T10:34:14;100637.81;;;26.25;49.09
26657;BME280;14279;50.010;8.260;2023-09-08T10:36:39;100638.78;;;26.40;48.65
26657;BME280;14279;50.010;8.260;2023-09-08T10:39:31;100630.78;;;26.40;48.44
26657;BME280;14279;50.010;8.260;2023-09-08T10:44:41;100627.81;;;26.27;48.65
26657;BME280;14279;50.010;8.260;2023-09-08T10:47:06;100627.94;;;26.01;48.88
26657;BME280;14279;50.010;8.260;2023-09-08T10:49:36;100625.16;;;26.35;48.55
26657;BME280;14279;50.010;8.260;2023-09-08T10:52:09;100618.78;;;26.45;47.81
26657;BME280;14279;50.010;8.260;2023-09-08T10:54:41;100627.63;;;26.45;47.35
26657;BME280;14279;50.010;8.260;2023-09-08T10:57:13;100618.78;;;26.53;47.33
26657;BME280;14279;50.010;8.260;2023-09-08T10:59:39;100625.94;;;26.52;47.69
26657;BME280;14279;50.010;8.260;2023-09-08T11:02:04;100621.13;;;26.39;48.38
26657;BME280;14279;50.010;8.260;2023-09-08T11:04:30;100619.22;;;26.73;47.72
26657;BME280;14279;50.010;8.260;2023-09-08T11:06:58;100619.16;;;26.98;46.34
26657;BME280;14279;50.010;8.260;2023-09-08T11:09:23;100616.50;;;26.98;45.50
26657;BME280;14279;50.010;8.260;2023-09-08T11:11:49;100613.56;;;26.84;45.79
26657;BME280;14279;50.010;8.260;2023-09-08T11:14:15;100610.00;;;27.00;45.83
26657;BME280;14279;50.010;8.260;2023-09-08T11:16:40;100606.78;;;27.05;46.14
26657;BME280;14279;50.010;8.260;2023-09-08T11:19:05;100605.34;;;27.26;45.56
26657;BME280;14279;50.010;8.260;2023-09-08T11:21:31;100604.56;;;27.17;45.94
26657;BME280;14279;50.010;8.260;2023-09-08T11:24:02;100599.09;;;27.42;45.32
26657;BME280;14279;50.010;8.260;2023-09-08T11:26:27;100603.13;;;27.38;45.48
26657;BME280;14279;50.010;8.260;2023-09-08T11:28:54;100601.06;;;27.56;45.24
26657;BME280;14279;50.010;8.260;2023-09-08T11:31:19;100604.00;;;27.62;45.40
26657;BME280;14279;50.010;8.260;2023-09-08T11:33:48;100597.56;;;27.48;44.65
26657;BME280;14279;50.010;8.260;2023-09-08T11:36:14;100594.63;;;27.66;44.77
26657;BME280;14279;50.010;8.260;2023-09-08T11:38:40;100594.31;;;27.60;44.37
26657;BME280;14279;50.010;8.260;2023-09-08T11:41:06;100587.16;;;27.61;44.11
26657;BME280;14279;50.010;8.260;2023-09-08T11:43:31;100590.06;;;27.43;43.79
26657;BME280;14279;50.010;8.260;2023-09-08T11:46:00;100589.94;;;27.68;43.79
26657;BME280;14279;50.010;8.260;2023-09-08T11:48:25;100594.69;;;27.81;43.27
26657;BME280;14279;50.010;8.260;2023-09-08T11:50:54;100583.53;;;27.45;43.87
26657;BME280;14279;50.010;8.260;2023-09-08T11:53:23;100590.25;;;27.73;43.39
26657;BME280;14279;50.010;8.260;2023-09-08T11:55:49;100594.56;;;27.97;43.60
26657;BME280;14279;50.010;8.260;2023-09-08T11:58:15;100593.81;;;28.12;42.50
26657;BME280;14279;50.010;8.260;2023-09-08T12:00:41;100594.84;;;28.26;42.54
26657;BME280;14279;50.010;8.260;2023-09-08T12:03:11;100587.00;;;28.39;41.69
26657;BME280;14279;50.010;8.260;2023-09-08T12:05:37;100592.56;;;28.38;41.50
26657;BME280;14279;50.010;8.260;2023-09-08T12:08:04;100584.06;;;28.49;41.82
26657;BME280;14279;50.010;8.260;2023-09-08T12:10:40;100581.22;;;28.50;41.52
26657;BME280;14279;50.010;8.260;2023-09-08T12:13:06;100588.59;;;28.48;41.63
26657;BME280;14279;50.010;8.260;2023-09-08T12:15:39;100589.78;;;28.61;41.92
26657;BME280;14279;50.010;8.260;2023-09-08T12:18:09;100580.09;;;28.60;41.90
26657;BME280;14279;50.010;8.260;2023-09-08T12:20:36;100576.25;;;28.62;41.18
26657;BME280;14279;50.010;8.260;2023-09-08T12:23:15;100570.59;;;28.72;40.87
26657;BME280;14279;50.010;8.260;2023-09-08T12:25:53;100578.91;;;28.77;41.07
26657;BME280;14279;50.010;8.260;2023-09-08T12:28:21;100572.44;;;28.87;40.59
26657;BME280;14279;50.010;8.260;2023-09-08T12:30:48;100573.28;;;28.72;41.11
26657;BME280;14279;50.010;8.260;2023-09-08T12:33:14;100571.22;;;28.89;40.83
26657;BME280;14279;50.010;8.260;2023-09-08T12:35:43;100571.44;;;28.88;41.72
26657;BME280;14279;50.010;8.260;2023-09-08T12:38:08;100563.50;;;28.79;42.07
26657;BME280;14279;50.010;8.260;2023-09-08T12:40:37;100569.59;;;28.88;41.61
26657;BME280;14279;50.010;8.260;2023-09-08T12:43:04;100570.13;;;28.84;41.79
26657;BME280;14279;50.010;8.260;2023-09-08T12:45:30;100567.66;;;28.97;41.19
26657;BME280;14279;50.010;8.260;2023-09-08T12:47:58;100567.34;;;29.07;41.22
26657;BME280;14279;50.010;8.260;2023-09-08T12:50:25;100562.50;;;29.17;40.63
26657;BME280;14279;50.010;8.260;2023-09-08T12:52:50;100554.09;;;29.20;39.67
26657;BME280;14279;50.010;8.260;2023-09-08T12:55:15;100564.94;;;29.12;40.77